Time;durP1;ratioP1;P1;durP2;ratioP2;P2;SDS_P1;SDS_P2;PMS_P1;PMS_P2;Temp;Humidity;BMP_temperature;BMP_pressure;BME280_temperature;BME280_humidity;BME280_pressure;Samples;Min_cycle;Max_cycle;Signal;HPM_P1;HPM_P2
2023/07/05 00:00:30;;;;;;;12.00;7.07;;;17.30;95.40;;;;;;6083920;23;20326;-77
2023/07/05 00:02:55;;;;;;;8.80;5.80;;;17.30;97.80;;;;;;6083857;23;20116;-76
2023/07/05 00:05:21;;;;;;;11.02;6.00;;;17.40;96.20;;;;;;6079550;23;20427;-77
2023/07/05 00:07:47;;;;;;;7.43;5.20;;;17.30;99.00;;;;;;6060458;23;20448;-77
2023/07/05 00:10:12;;;;;;;8.00;5.47;;;17.30;99.90;;;;;;6060656;23;20037;-77
2023/07/05 00:12:38;;;;;;;8.77;5.28;;;17.20;99.90;;;;;;6080632;23;20017;-78
2023/07/05 00:15:04;;;;;;;7.32;5.22;;;17.20;99.90;;;;;;6061816;23;20017;-77
2023/07/05 00:17:33;;;;;;;6.68;5.05;;;17.20;99.90;;;;;;6061510;23;20018;-78
2023/07/05 00:19:59;;;;;;;6.70;4.28;;;17.20;99.90;;;;;;6057810;23;20018;-78
2023/07/05 00:22:26;;;;;;;6.13;4.93;;;17.10;99.90;;;;;;6061979;23;20020;-78
2023/07/05 00:24:55;;;;;;;8.52;5.07;;;17.10;99.90;;;;;;6058263;23;20349;-78
2023/07/05 00:27:21;;;;;;;8.35;4.93;;;17.10;99.90;;;;;;6054955;23;20022;-77
2023/07/05 00:29:46;;;;;;;5.75;4.28;;;17.00;99.90;;;;;;6083302;23;20014;-78
2023/07/05 00:32:12;;;;;;;7.75;4.78;;;17.00;99.90;;;;;;6058961;23;20005;-78
2023/07/05 00:34:38;;;;;;;6.88;4.50;;;16.90;99.90;;;;;;6081309;23;20024;-78
2023/07/05 00:37:03;;;;;;;10.90;4.97;;;17.00;99.90;;;;;;6085304;23;20392;-79
2023/07/05 00:39:29;;;;;;;7.93;4.65;;;17.00;99.90;;;;;;6057422;23;20037;-78
2023/07/05 00:41:55;;;;;;;8.48;4.85;;;17.00;99.90;;;;;;6083178;23;20056;-79
2023/07/05 00:44:21;;;;;;;7.63;4.30;;;17.00;99.90;;;;;;6054961;23;20037;-79
2023/07/05 00:46:48;;;;;;;8.38;4.85;;;17.10;99.90;;;;;;6081916;23;20002;-79
2023/07/05 00:49:20;;;;;;;11.00;4.38;;;16.90;99.90;;;;;;6037078;23;20349;-79
2023/07/05 00:51:58;;;;;;;10.23;5.30;;;16.90;99.90;;;;;;6062220;23;20117;-78
2023/07/05 00:54:28;;;;;;;5.53;4.40;;;16.90;99.90;;;;;;6061098;23;20011;-78
2023/07/05 00:57:17;;;;;;;7.30;4.53;;;16.80;99.90;;;;;;6048732;23;20422;-78
2023/07/05 00:59:54;;;;;;;5.97;3.70;;;16.90;99.90;;;;;;6065937;23;20042;-78
2023/07/05 01:02:20;;;;;;;4.93;3.58;;;17.00;99.90;;;;;;6037700;23;20033;-78
2023/07/05 01:04:45;;;;;;;6.80;3.47;;;17.00;99.90;;;;;;6058914;23;20013;-78
2023/07/05 01:07:11;;;;;;;5.97;3.53;;;16.90;99.90;;;;;;6057161;23;20010;-78
2023/07/05 01:09:37;;;;;;;6.13;3.78;;;17.00;99.90;;;;;;6082723;23;20168;-78
2023/07/05 01:12:33;;;;;;;5.45;3.53;;;16.90;99.90;;;;;;6035577;23;20010;-78
2023/07/05 01:15:06;;;;;;;5.05;3.42;;;16.90;99.90;;;;;;6055042;23;20042;-78
2023/07/05 01:17:52;;;;;;;6.18;3.50;;;16.90;99.90;;;;;;6038505;23;20016;-78
2023/07/05 01:20:36;;;;;;;7.13;3.55;;;16.90;99.90;;;;;;6076169;23;20065;-78
2023/07/05 01:23:11;;;;;;;8.02;3.03;;;16.80;99.90;;;;;;6079331;23;20141;-78
2023/07/05 01:25:58;;;;;;;2.88;2.55;;;16.90;99.90;;;;;;6077374;23;20046;-78
2023/07/05 01:28:55;;;;;;;4.20;2.90;;;17.00;99.90;;;;;;6077860;23;20081;-78
2023/07/05 01:31:51;;;;;;;4.28;3.10;;;17.00;99.90;;;;;;6077258;23;20022;-77
2023/07/05 01:35:03;;;;;;;4.90;2.78;;;17.00;99.90;;;;;;6081723;23;20015;-78
2023/07/05 01:37:37;;;;;;;4.38;2.65;;;17.00;99.90;;;;;;5912678;24;20016;-78
2023/07/05 01:40:13;;;;;;;4.00;2.63;;;17.00;99.90;;;;;;5963405;23;20109;-77
2023/07/05 01:42:39;;;;;;;3.13;2.83;;;17.00;99.90;;;;;;6048350;23;20025;-78
2023/07/05 01:45:05;;;;;;;6.78;3.05;;;16.90;99.90;;;;;;6031118;23;20014;-78
2023/07/05 01:47:41;;;;;;;3.70;2.83;;;17.00;99.90;;;;;;6055289;23;20014;-78
2023/07/05 01:50:27;;;;;;;4.57;2.90;;;16.90;99.90;;;;;;6059665;23;20034;-78
2023/07/05 01:53:04;;;;;;;4.15;2.58;;;17.00;99.90;;;;;;6082106;23;20022;-77
2023/07/05 01:55:40;;;;;;;5.80;2.92;;;16.90;99.90;;;;;;6057430;23;20325;-77
2023/07/05 01:58:13;;;;;;;3.97;2.75;;;16.90;99.90;;;;;;6060258;23;20434;-78
2023/07/05 02:00:39;;;;;;;4.15;2.47;;;16.90;99.90;;;;;;6060576;23;20068;-77
2023/07/05 02:03:10;;;;;;;2.40;2.03;;;16.90;99.90;;;;;;6056789;23;20479;-77
2023/07/05 02:05:37;;;;;;;4.03;2.67;;;16.90;99.90;;;;;;6062626;23;20057;-77
2023/07/05 02:08:02;;;;;;;3.55;2.78;;;16.90;99.90;;;;;;6059194;23;20437;-77
2023/07/05 02:10:28;;;;;;;3.47;2.35;;;17.00;99.90;;;;;;6056996;23;20021;-77
2023/07/05 02:12:55;;;;;;;2.85;1.80;;;16.90;99.90;;;;;;6058575;23;20014;-78
2023/07/05 02:15:20;;;;;;;2.78;2.35;;;16.90;99.90;;;;;;6057182;23;20033;-77
2023/07/05 02:17:46;;;;;;;3.72;2.47;;;16.90;99.90;;;;;;6054519;23;20456;-77
2023/07/05 02:20:12;;;;;;;4.03;2.60;;;16.80;99.90;;;;;;6084442;23;20014;-78
2023/07/05 02:22:37;;;;;;;2.15;1.92;;;16.80;99.90;;;;;;6043486;23;20092;-77
2023/07/05 02:25:03;;;;;;;4.88;2.50;;;16.90;99.90;;;;;;6054166;23;20329;-77
2023/07/05 02:27:29;;;;;;;4.07;2.30;;;16.90;99.90;;;;;;6036210;23;20393;-77
2023/07/05 02:29:55;;;;;;;2.83;2.08;;;16.90;99.90;;;;;;6052576;23;20010;-77
2023/07/05 02:32:21;;;;;;;3.58;1.88;;;16.90;99.90;;;;;;6050079;23;20095;-77
2023/07/05 02:34:46;;;;;;;2.65;1.73;;;17.00;99.90;;;;;;6078273;23;20047;-77
2023/07/05 02:37:12;;;;;;;2.83;1.90;;;17.00;99.90;;;;;;6054231;23;20047;-78
2023/07/05 02:39:38;;;;;;;4.22;2.05;;;17.00;99.90;;;;;;6080577;23;20017;-78
2023/07/05 02:42:07;;;;;;;2.25;1.92;;;17.00;99.90;;;;;;6076015;23;20013;-79
2023/07/05 02:44:32;;;;;;;4.15;2.00;;;17.00;99.90;;;;;;6056738;23;20014;-79
2023/07/05 02:46:58;;;;;;;2.05;1.58;;;17.10;99.90;;;;;;6057560;23;20014;-79
2023/07/05 02:49:24;;;;;;;3.67;2.00;;;17.10;99.90;;;;;;6078316;23;20014;-79
2023/07/05 02:51:50;;;;;;;3.65;1.88;;;17.00;99.90;;;;;;6032517;23;20018;-80
2023/07/05 02:54:15;;;;;;;2.03;1.83;;;17.00;99.90;;;;;;6057725;23;20014;-79
2023/07/05 02:56:41;;;;;;;2.28;2.08;;;17.10;99.90;;;;;;6054581;23;20014;-79
2023/07/05 02:59:06;;;;;;;4.72;2.10;;;17.10;99.90;;;;;;6056537;23;20007;-79
2023/07/05 03:01:32;;;;;;;2.33;1.80;;;17.10;99.90;;;;;;6080533;23;20022;-79
2023/07/05 03:03:57;;;;;;;6.22;1.67;;;17.20;99.90;;;;;;6079996;23;20371;-80
2023/07/05 03:06:23;;;;;;;2.47;1.42;;;17.20;99.90;;;;;;6056800;23;20018;-79
2023/07/05 03:08:48;;;;;;;2.00;1.70;;;17.20;99.90;;;;;;6055300;23;20123;-79
2023/07/05 03:11:14;;;;;;;3.17;1.67;;;17.30;99.90;;;;;;6033007;23;20022;-79
2023/07/05 03:13:40;;;;;;;2.00;1.52;;;17.20;99.90;;;;;;6055067;23;20022;-79
2023/07/05 03:16:05;;;;;;;1.77;1.60;;;17.20;99.90;;;;;;6054771;23;20357;-79
2023/07/05 03:18:31;;;;;;;2.08;1.50;;;17.30;99.90;;;;;;6080348;23;20463;-79
2023/07/05 03:20:57;;;;;;;2.10;1.38;;;17.30;99.90;;;;;;6055286;23;20066;-78
2023/07/05 03:23:23;;;;;;;0.70;0.70;;;17.40;99.90;;;;;;6081147;23;20465;-79
2023/07/05 03:25:58;;;;;;;4.13;2.08;;;17.20;99.90;;;;;;6057340;23;20018;-79
2023/07/05 03:28:27;;;;;;;;;;;17.20;99.90;;;;;;6079968;23;20022;-79
2023/07/05 03:31:03;;;;;;;2.53;1.30;;;17.20;99.90;;;;;;6104635;23;19959;-79
2023/07/05 03:33:29;;;;;;;3.03;2.78;;;17.20;99.90;;;;;;6054040;23;20026;-79
2023/07/05 03:35:55;;;;;;;3.30;1.80;;;17.30;99.90;;;;;;6079900;23;20010;-79
2023/07/05 03:38:21;;;;;;;2.90;1.58;;;17.20;99.90;;;;;;6056272;23;20476;-79
2023/07/05 03:40:46;;;;;;;3.80;1.73;;;17.10;99.90;;;;;;6056889;23;20431;-79
2023/07/05 03:43:12;;;;;;;2.13;1.45;;;17.20;99.90;;;;;;6052367;23;20505;-78
2023/07/05 03:45:37;;;;;;;2.95;1.05;;;17.10;99.90;;;;;;6054138;23;20017;-79
2023/07/05 03:48:03;;;;;;;2.58;1.83;;;17.10;99.90;;;;;;6082434;23;20014;-79
2023/07/05 03:50:28;;;;;;;2.83;1.40;;;16.90;99.90;;;;;;6053807;23;20392;-79
2023/07/05 03:52:54;;;;;;;3.05;1.70;;;16.80;99.90;;;;;;6033977;23;20121;-79
2023/07/05 03:55:20;;;;;;;1.70;1.60;;;16.80;99.90;;;;;;6032012;23;20120;-79
2023/07/05 03:57:45;;;;;;;2.15;1.25;;;16.60;99.90;;;;;;6025161;23;20390;-78
2023/07/05 04:00:11;;;;;;;1.38;1.13;;;16.60;99.90;;;;;;6057241;23;20020;-79
2023/07/05 04:02:37;;;;;;;1.33;0.85;;;16.50;99.90;;;;;;6081249;23;20476;-78
2023/07/05 04:05:03;;;;;;;2.67;1.17;;;16.40;99.90;;;;;;6058113;23;20022;-79
2023/07/05 04:07:29;;;;;;;1.70;1.08;;;16.40;99.90;;;;;;6039056;23;22687;-79
2023/07/05 04:09:54;;;;;;;1.92;1.20;;;16.30;99.90;;;;;;6061334;23;20081;-79
2023/07/05 04:12:20;;;;;;;2.00;1.20;;;16.20;99.90;;;;;;6032567;23;20093;-78
2023/07/05 04:14:46;;;;;;;2.15;1.10;;;16.10;99.90;;;;;;6050253;23;20446;-78
2023/07/05 04:17:11;;;;;;;2.08;0.77;;;16.10;99.90;;;;;;6053799;23;20010;-80
2023/07/05 04:19:37;;;;;;;3.75;1.40;;;16.10;99.90;;;;;;6055536;23;20029;-79
2023/07/05 04:22:02;;;;;;;4.07;1.10;;;16.00;99.90;;;;;;6055651;23;20026;-79
2023/07/05 04:24:28;;;;;;;1.42;1.23;;;16.00;99.90;;;;;;6057360;23;20077;-80
2023/07/05 04:26:53;;;;;;;4.50;1.23;;;15.80;99.90;;;;;;6053595;23;20078;-79
2023/07/05 04:29:19;;;;;;;4.47;1.00;;;16.00;99.90;;;;;;6075829;23;20392;-79
2023/07/05 04:31:44;;;;;;;5.03;1.60;;;15.80;99.90;;;;;;6030354;23;20353;-79
2023/07/05 04:34:10;;;;;;;0.98;0.77;;;15.70;99.90;;;;;;6056241;23;20038;-78
2023/07/05 04:36:35;;;;;;;2.22;1.27;;;15.70;99.90;;;;;;6056236;23;20014;-78
2023/07/05 04:39:01;;;;;;;2.30;1.20;;;15.70;99.90;;;;;;6054302;23;20017;-79
2023/07/05 04:41:27;;;;;;;2.78;1.38;;;15.70;99.90;;;;;;6028754;23;20022;-79
2023/07/05 04:43:53;;;;;;;3.53;1.27;;;15.60;99.90;;;;;;6081506;23;20081;-79
2023/07/05 04:46:18;;;;;;;4.15;2.35;;;15.60;99.90;;;;;;6074408;23;20040;-78
2023/07/05 04:48:44;;;;;;;2.50;1.27;;;15.50;99.90;;;;;;6075647;23;20035;-79
2023/07/05 04:51:09;;;;;;;3.10;1.80;;;15.40;99.90;;;;;;6057524;23;20172;-80
2023/07/05 04:53:35;;;;;;;5.88;1.45;;;15.40;99.90;;;;;;6029707;23;20030;-79
2023/07/05 04:56:01;;;;;;;3.20;1.73;;;15.50;99.90;;;;;;6079732;23;20310;-79
2023/07/05 04:58:27;;;;;;;3.95;1.50;;;15.40;99.90;;;;;;6079366;23;20014;-79
2023/07/05 05:00:52;;;;;;;2.10;1.13;;;15.30;99.90;;;;;;6053939;23;20014;-79
2023/07/05 05:03:20;;;;;;;3.40;1.50;;;15.30;99.90;;;;;;6079351;23;20092;-79
2023/07/05 05:05:48;;;;;;;4.72;1.70;;;15.40;99.90;;;;;;6055064;23;20010;-79
2023/07/05 05:08:14;;;;;;;3.35;1.48;;;15.40;99.90;;;;;;6074953;23;20091;-79
2023/07/05 05:10:39;;;;;;;4.63;2.15;;;15.50;99.90;;;;;;6078665;23;20394;-79
2023/07/05 05:13:06;;;;;;;4.95;1.95;;;15.50;99.90;;;;;;6078393;23;20069;-79
2023/07/05 05:15:37;;;;;;;4.60;1.75;;;15.50;99.90;;;;;;6079314;23;20085;-80
2023/07/05 05:18:04;;;;;;;2.97;1.30;;;15.60;99.90;;;;;;6034365;23;20017;-80
2023/07/05 05:20:31;;;;;;;2.13;1.27;;;15.70;99.90;;;;;;6079082;23;20449;-80
2023/07/05 05:22:58;;;;;;;3.80;1.35;;;15.80;99.90;;;;;;6076464;23;20018;-80
2023/07/05 05:25:24;;;;;;;2.50;1.30;;;15.90;99.90;;;;;;6054966;23;20053;-80
2023/07/05 05:27:50;;;;;;;3.45;1.65;;;16.10;99.90;;;;;;6051196;23;20025;-79
2023/07/05 05:30:15;;;;;;;4.13;1.63;;;16.00;99.90;;;;;;6075924;23;20018;-80
2023/07/05 05:32:41;;;;;;;2.05;1.35;;;16.10;99.90;;;;;;6045317;23;20010;-79
2023/07/05 05:35:08;;;;;;;1.52;0.57;;;15.90;99.90;;;;;;6079473;23;20010;-79
2023/07/05 05:37:33;;;;;;;3.05;2.25;;;16.10;99.90;;;;;;6056895;23;20044;-79
2023/07/05 05:39:59;;;;;;;2.28;1.55;;;16.20;99.90;;;;;;6029347;23;20022;-79
2023/07/05 05:42:25;;;;;;;2.35;1.75;;;16.00;99.90;;;;;;6052250;23;20517;-79
2023/07/05 05:44:50;;;;;;;4.88;1.90;;;16.10;99.90;;;;;;6057425;23;20349;-79
2023/07/05 05:47:16;;;;;;;4.25;1.85;;;16.20;99.90;;;;;;6029052;23;20508;-79
2023/07/05 05:49:41;;;;;;;4.50;1.20;;;16.10;99.90;;;;;;6078674;23;20006;-79
2023/07/05 05:52:07;;;;;;;4.90;2.10;;;16.10;99.90;;;;;;6056237;23;20022;-79
2023/07/05 05:54:33;;;;;;;5.90;1.67;;;16.10;99.90;;;;;;6077562;23;20357;-79
2023/07/05 05:56:59;;;;;;;3.63;2.47;;;16.20;99.90;;;;;;6031101;23;20039;-78
2023/07/05 05:59:25;;;;;;;3.63;2.20;;;16.30;99.90;;;;;;6057008;23;20018;-78
2023/07/05 06:01:51;;;;;;;4.65;1.67;;;16.20;99.90;;;;;;6048432;23;20013;-78
2023/07/05 06:04:16;;;;;;;3.20;1.90;;;16.30;99.90;;;;;;6056067;23;20294;-78
2023/07/05 06:06:42;;;;;;;2.67;1.58;;;16.20;99.90;;;;;;6077057;23;20011;-78
2023/07/05 06:09:08;;;;;;;4.43;2.00;;;16.20;99.90;;;;;;6075934;23;20015;-78
2023/07/05 06:11:33;;;;;;;2.42;1.40;;;16.40;99.90;;;;;;6054693;23;20077;-78
2023/07/05 06:13:59;;;;;;;3.90;1.70;;;16.50;99.90;;;;;;6075855;23;20015;-78
2023/07/05 06:16:25;;;;;;;2.30;1.50;;;16.50;99.90;;;;;;6080164;23;20070;-78
2023/07/05 06:18:51;;;;;;;2.65;1.40;;;16.40;99.90;;;;;;6051271;23;20014;-79
2023/07/05 06:21:17;;;;;;;4.70;2.30;;;16.50;99.90;;;;;;6031459;23;20482;-78
2023/07/05 06:23:42;;;;;;;3.78;1.77;;;16.60;99.90;;;;;;6032360;23;20018;-78
2023/07/05 06:26:08;;;;;;;2.20;1.33;;;16.50;99.90;;;;;;6030236;23;20097;-78
2023/07/05 06:28:34;;;;;;;4.15;1.98;;;16.30;99.90;;;;;;6058425;23;20018;-78
2023/07/05 06:31:06;;;;;;;5.32;1.73;;;16.40;99.90;;;;;;6079873;23;20093;-78
2023/07/05 06:33:32;;;;;;;4.63;2.30;;;16.30;99.90;;;;;;6077613;23;20014;-78
2023/07/05 06:36:00;;;;;;;2.95;1.75;;;16.30;99.90;;;;;;6019685;23;20006;-78
2023/07/05 06:38:26;;;;;;;3.55;1.90;;;16.20;99.90;;;;;;6103734;23;20016;-78
2023/07/05 06:40:52;;;;;;;5.00;2.28;;;16.30;99.90;;;;;;6054181;23;20014;-78
2023/07/05 06:43:17;;;;;;;3.35;2.17;;;16.30;99.90;;;;;;6052749;23;20010;-78
2023/07/05 06:45:47;;;;;;;6.28;2.30;;;16.30;99.90;;;;;;6059883;23;20007;-78
2023/07/05 06:48:13;;;;;;;3.15;1.67;;;16.50;99.90;;;;;;6055296;23;20014;-78
2023/07/05 06:50:39;;;;;;;3.30;1.70;;;16.60;99.90;;;;;;6078446;23;20010;-78
2023/07/05 06:53:04;;;;;;;4.63;1.48;;;16.50;99.90;;;;;;6080399;23;20277;-78
2023/07/05 06:55:30;;;;;;;3.13;1.63;;;16.50;99.90;;;;;;6079407;23;20014;-78
2023/07/05 06:57:55;;;;;;;2.65;1.60;;;16.60;99.90;;;;;;6079657;23;20030;-77
2023/07/05 07:00:21;;;;;;;1.92;0.90;;;16.80;99.90;;;;;;6057576;23;20046;-78
2023/07/05 07:02:47;;;;;;;3.60;1.65;;;16.80;99.90;;;;;;6055124;23;20025;-79
2023/07/05 07:05:12;;;;;;;3.47;2.00;;;16.90;99.90;;;;;;6034060;23;20007;-78
2023/07/05 07:07:38;;;;;;;5.10;1.55;;;16.90;99.90;;;;;;6080194;23;20083;-78
2023/07/05 07:10:04;;;;;;;2.75;1.50;;;16.90;99.90;;;;;;6055008;23;20076;-79
2023/07/05 07:12:29;;;;;;;3.35;2.05;;;16.80;99.90;;;;;;6056533;23;20021;-79
2023/07/05 07:14:55;;;;;;;5.75;1.75;;;16.90;99.90;;;;;;6078257;23;20030;-79
2023/07/05 07:17:21;;;;;;;2.95;1.35;;;17.20;99.90;;;;;;6056527;23;20126;-79
2023/07/05 07:19:46;;;;;;;9.38;1.58;;;17.10;99.50;;;;;;6050426;23;20025;-79
2023/07/05 07:22:12;;;;;;;4.88;1.67;;;17.10;99.60;;;;;;6078033;23;20013;-79
2023/07/05 07:24:37;;;;;;;1.67;1.15;;;17.00;99.80;;;;;;6034824;23;20026;-79
2023/07/05 07:27:04;;;;;;;2.90;1.98;;;17.00;99.50;;;;;;6078692;23;20010;-79
2023/07/05 07:29:29;;;;;;;2.63;1.35;;;17.10;99.60;;;;;;6058010;23;20006;-79
2023/07/05 07:31:55;;;;;;;4.40;1.83;;;17.20;99.20;;;;;;6079873;23;20215;-79
2023/07/05 07:34:20;;;;;;;1.15;0.90;;;17.00;99.10;;;;;;6052705;23;20334;-79
2023/07/05 07:36:46;;;;;;;3.67;1.42;;;17.00;99.10;;;;;;6080893;23;20271;-79
2023/07/05 07:39:11;;;;;;;5.28;0.80;;;17.00;99.40;;;;;;6033154;23;20102;-78
2023/07/05 07:41:37;;;;;;;1.85;0.98;;;16.70;99.60;;;;;;6056944;23;20010;-79
2023/07/05 07:44:07;;;;;;;3.92;1.13;;;16.70;99.90;;;;;;6053370;23;20025;-79
2023/07/05 07:46:33;;;;;;;6.10;1.52;;;16.70;99.90;;;;;;6078765;23;20357;-79
2023/07/05 07:48:59;;;;;;;2.75;1.17;;;16.60;99.90;;;;;;6056949;23;20014;-79
2023/07/05 07:51:30;;;;;;;2.33;1.38;;;16.50;99.90;;;;;;6078777;23;20409;-79
2023/07/05 07:53:56;;;;;;;2.55;1.33;;;16.20;99.90;;;;;;6081541;23;20018;-79
2023/07/05 07:56:23;;;;;;;2.70;1.52;;;16.10;99.90;;;;;;6079332;23;20014;-79
2023/07/05 07:58:50;;;;;;;3.05;0.85;;;16.10;99.90;;;;;;6055682;23;20708;-79
2023/07/05 08:01:17;;;;;;;2.88;1.48;;;16.00;99.90;;;;;;6038293;23;20018;-79
2023/07/05 08:03:43;;;;;;;1.98;1.50;;;16.00;99.90;;;;;;6056586;23;20085;-79
2023/07/05 08:06:09;;;;;;;2.17;0.95;;;16.00;99.90;;;;;;6051054;23;20397;-79
2023/07/05 08:08:35;;;;;;;1.52;0.77;;;16.10;99.90;;;;;;6080067;23;20114;-79
2023/07/05 08:11:02;;;;;;;2.53;0.93;;;16.10;99.90;;;;;;6084303;23;20081;-79
2023/07/05 08:13:29;;;;;;;1.20;0.75;;;16.10;99.90;;;;;;6057777;23;20022;-79
2023/07/05 08:15:54;;;;;;;2.50;0.88;;;16.40;99.90;;;;;;6059238;23;20014;-78
2023/07/05 08:18:20;;;;;;;5.60;0.90;;;16.50;99.60;;;;;;6060018;23;20055;-78
2023/07/05 08:20:45;;;;;;;0.68;0.50;;;16.40;99.80;;;;;;6058947;23;20452;-78
2023/07/05 08:23:11;;;;;;;2.10;1.00;;;16.60;99.80;;;;;;6086679;23;20037;-79
2023/07/05 08:25:39;;;;;;;3.53;1.10;;;16.60;99.70;;;;;;6081879;23;20021;-79
2023/07/05 08:28:05;;;;;;;1.73;0.80;;;16.80;99.70;;;;;;6034795;23;20010;-78
2023/07/05 08:30:31;;;;;;;3.75;1.10;;;16.90;99.70;;;;;;6085280;23;20010;-78
2023/07/05 08:32:57;;;;;;;3.78;1.15;;;17.00;99.40;;;;;;6037049;23;20064;-77
2023/07/05 08:35:22;;;;;;;0.90;0.50;;;16.90;99.50;;;;;;6060438;23;20514;-77
2023/07/05 08:37:49;;;;;;;4.78;1.45;;;16.90;99.40;;;;;;6079926;23;20024;-77
2023/07/05 08:40:16;;;;;;;2.03;1.17;;;16.80;99.50;;;;;;6058675;23;20022;-77
2023/07/05 08:42:55;;;;;;;4.30;0.82;;;16.70;99.70;;;;;;6058501;23;20014;-77
2023/07/05 08:45:35;;;;;;;2.47;1.38;;;16.70;99.70;;;;;;6060379;23;20022;-77
2023/07/05 08:48:02;;;;;;;1.70;0.90;;;16.60;99.40;;;;;;6036766;23;20014;-77
2023/07/05 08:50:34;;;;;;;4.00;1.20;;;16.50;99.20;;;;;;6059446;23;20405;-78
2023/07/05 08:53:03;;;;;;;1.35;0.90;;;16.60;99.30;;;;;;6036294;23;20114;-78
2023/07/05 08:55:53;;;;;;;3.08;1.02;;;16.60;98.80;;;;;;6055751;23;20408;-79
2023/07/05 08:58:26;;;;;;;6.55;1.17;;;16.50;98.80;;;;;;6057640;23;20028;-79
2023/07/05 09:01:01;;;;;;;1.88;0.90;;;16.50;98.80;;;;;;6031670;23;20456;-78
2023/07/05 09:03:30;;;;;;;4.28;1.20;;;16.50;98.70;;;;;;6057221;23;20241;-79
2023/07/05 09:06:19;;;;;;;3.85;1.33;;;16.50;98.60;;;;;;6084679;23;20025;-78
2023/07/05 09:09:13;;;;;;;3.28;1.05;;;16.50;98.60;;;;;;6086047;23;20376;-78
2023/07/05 09:12:07;;;;;;;3.13;1.00;;;16.40;98.50;;;;;;6056052;23;20014;-79
2023/07/05 09:14:42;;;;;;;1.73;0.75;;;16.30;98.60;;;;;;6056733;23;20025;-78
2023/07/05 09:17:16;;;;;;;4.88;0.90;;;16.40;98.30;;;;;;6058508;23;20490;-77
2023/07/05 09:19:47;;;;;;;1.98;1.10;;;16.40;98.00;;;;;;6033889;23;20014;-78
2023/07/05 09:22:16;;;;;;;3.75;0.88;;;16.50;98.00;;;;;;6060603;23;20010;-79
2023/07/05 09:24:43;;;;;;;4.07;1.55;;;16.60;97.90;;;;;;6059652;23;20053;-79
2023/07/05 09:27:14;;;;;;;4.18;1.13;;;16.60;97.80;;;;;;6056599;23;20492;-79
2023/07/05 09:29:53;;;;;;;0.93;0.52;;;16.60;97.60;;;;;;6061800;23;20076;-78
2023/07/05 09:32:22;;;;;;;6.13;0.77;;;16.70;97.50;;;;;;6054588;23;20002;-80
2023/07/05 09:34:58;;;;;;;1.40;0.80;;;17.00;97.60;;;;;;6055983;23;20002;-79
2023/07/05 09:37:34;;;;;;;2.38;0.82;;;17.30;96.60;;;;;;6056546;23;20543;-78
2023/07/05 09:40:19;;;;;;;2.60;0.95;;;17.70;96.20;;;;;;6034780;23;20034;-78
2023/07/05 09:43:05;;;;;;;6.93;1.30;;;18.00;95.10;;;;;;6025294;23;20325;-78
2023/07/05 09:45:31;;;;;;;5.13;1.13;;;18.40;94.60;;;;;;6068625;23;20243;-77
2023/07/05 09:48:02;;;;;;;2.45;1.10;;;18.50;93.70;;;;;;6057805;23;20021;-77
2023/07/05 09:50:28;;;;;;;3.30;0.93;;;18.60;93.20;;;;;;6073133;23;20023;-78
2023/07/05 09:53:13;;;;;;;5.93;1.15;;;18.90;93.70;;;;;;6054007;23;20018;-77
2023/07/05 09:56:01;;;;;;;5.85;1.08;;;19.10;92.50;;;;;;6066608;23;20694;-77
2023/07/05 09:58:26;;;;;;;4.15;0.98;;;19.30;92.00;;;;;;6065754;23;20180;-76
2023/07/05 10:00:52;;;;;;;3.35;1.00;;;19.00;91.80;;;;;;6051511;23;20022;-77
2023/07/05 10:03:18;;;;;;;2.25;0.82;;;19.60;91.90;;;;;;6056439;23;20086;-78
2023/07/05 10:05:54;;;;;;;4.60;1.85;;;19.40;91.10;;;;;;6030389;23;20088;-78
2023/07/05 10:08:21;;;;;;;0.98;0.77;;;19.40;91.30;;;;;;6058239;23;20068;-77
2023/07/05 10:10:47;;;;;;;2.05;0.88;;;19.80;90.30;;;;;;6032185;23;20014;-77
2023/07/05 10:13:26;;;;;;;2.70;1.00;;;20.00;89.40;;;;;;6061099;23;20019;-77
2023/07/05 10:15:57;;;;;;;3.65;1.33;;;19.80;87.80;;;;;;6043829;23;20018;-77
2023/07/05 10:18:33;;;;;;;3.00;0.90;;;19.80;86.80;;;;;;6054994;23;20014;-77
2023/07/05 10:21:04;;;;;;;3.05;0.95;;;19.90;87.20;;;;;;6081767;23;20045;-77
2023/07/05 10:23:30;;;;;;;2.55;0.90;;;19.70;86.30;;;;;;6037133;23;20116;-76
2023/07/05 10:26:02;;;;;;;1.50;0.90;;;19.60;86.20;;;;;;6047481;23;20022;-77
2023/07/05 10:28:29;;;;;;;4.35;1.08;;;19.70;87.30;;;;;;6042103;23;20010;-77
2023/07/05 10:31:03;;;;;;;3.35;1.10;;;19.60;85.50;;;;;;6066586;23;20344;-77
2023/07/05 10:33:30;;;;;;;4.28;0.95;;;19.60;85.20;;;;;;6058512;23;20545;-77
2023/07/05 10:36:05;;;;;;;3.72;1.05;;;19.70;84.50;;;;;;6057192;23;20101;-76
2023/07/05 10:38:32;;;;;;;3.13;2.03;;;19.80;84.20;;;;;;6082881;23;20022;-76
2023/07/05 10:41:16;;;;;;;4.68;1.27;;;20.20;82.70;;;;;;6056050;23;20357;-76
2023/07/05 10:43:41;;;;;;;2.10;0.75;;;20.20;83.70;;;;;;6063226;23;20010;-76
2023/07/05 10:46:07;;;;;;;2.25;0.77;;;20.80;82.10;;;;;;6055010;23;20064;-76
2023/07/05 10:48:40;;;;;;;2.45;0.75;;;21.20;79.80;;;;;;6057050;23;20100;-77
2023/07/05 10:51:26;;;;;;;1.58;1.05;;;21.40;79.30;;;;;;6060890;23;20483;-76
2023/07/05 10:54:05;;;;;;;6.28;1.40;;;21.40;79.00;;;;;;6005401;23;20090;-77
2023/07/05 10:56:32;;;;;;;3.88;1.15;;;21.20;77.50;;;;;;6058839;23;20081;-76
2023/07/05 10:59:30;;;;;;;3.97;1.00;;;21.00;77.70;;;;;;6012368;23;20014;-76
2023/07/05 11:02:01;;;;;;;4.63;1.00;;;21.40;77.10;;;;;;6049331;23;20404;-76
2023/07/05 11:04:29;;;;;;;6.90;1.25;;;21.50;76.30;;;;;;6078532;23;20302;-76
2023/07/05 11:07:02;;;;;;;2.10;0.57;;;21.50;76.60;;;;;;6054856;23;20007;-77
2023/07/05 11:09:35;;;;;;;3.97;1.42;;;21.00;75.50;;;;;;6059968;23;20021;-76
2023/07/05 11:12:03;;;;;;;3.10;1.05;;;20.70;74.90;;;;;;6051411;23;20218;-76
2023/07/05 11:14:28;;;;;;;2.97;1.00;;;21.00;74.20;;;;;;6054342;23;20021;-76
2023/07/05 11:16:54;;;;;;;3.47;1.50;;;21.00;73.70;;;;;;6036831;23;20010;-76
2023/07/05 11:19:25;;;;;;;3.25;1.00;;;20.80;73.90;;;;;;6063401;23;20138;-76
2023/07/05 11:21:52;;;;;;;5.18;0.95;;;21.10;73.00;;;;;;6032045;23;20022;-76
2023/07/05 11:24:41;;;;;;;3.05;0.82;;;20.90;73.00;;;;;;6060085;23;20002;-76
2023/07/05 11:27:25;;;;;;;4.28;1.45;;;21.50;72.20;;;;;;6082345;23;20010;-77
2023/07/05 11:29:53;;;;;;;5.60;1.45;;;21.50;74.10;;;;;;6079271;23;20532;-76
2023/07/05 11:32:26;;;;;;;12.02;1.65;;;21.50;71.70;;;;;;6051640;23;20021;-76
2023/07/05 11:34:53;;;;;;;3.70;1.00;;;21.60;71.90;;;;;;6074050;23;20338;-76
2023/07/05 11:37:21;;;;;;;1.17;0.70;;;21.70;71.80;;;;;;6056330;23;20536;-76
2023/07/05 11:39:48;;;;;;;3.72;1.20;;;21.70;69.60;;;;;;6110297;23;20010;-76
2023/07/05 11:42:14;;;;;;;7.35;0.98;;;22.20;71.40;;;;;;6036236;23;20010;-77
2023/07/05 11:44:55;;;;;;;3.05;1.15;;;22.30;69.40;;;;;;6111517;23;20379;-77
2023/07/05 11:47:23;;;;;;;1.45;0.77;;;22.20;68.70;;;;;;6108725;23;20021;-76
2023/07/05 11:49:56;;;;;;;1.67;0.70;;;22.10;68.70;;;;;;6109834;23;20021;-76
2023/07/05 11:52:26;;;;;;;2.58;1.00;;;22.40;68.70;;;;;;6038894;23;20464;-76
2023/07/05 11:55:04;;;;;;;7.03;1.60;;;22.60;68.70;;;;;;6062481;23;20085;-77
2023/07/05 11:57:48;;;;;;;2.95;0.90;;;22.90;67.90;;;;;;6055247;23;20033;-77
2023/07/05 12:00:18;;;;;;;1.20;0.60;;;23.30;65.40;;;;;;6110886;23;20022;-78
2023/07/05 12:02:56;;;;;;;2.30;1.20;;;23.50;64.60;;;;;;6060270;23;20037;-76
2023/07/05 12:05:24;;;;;;;3.63;1.17;;;22.80;63.50;;;;;;6035232;23;20356;-77
2023/07/05 12:08:05;;;;;;;1.45;0.98;;;22.80;64.30;;;;;;6058992;23;20065;-77
2023/07/05 12:10:33;;;;;;;1.45;0.80;;;22.70;63.40;;;;;;6036480;23;20018;-77
2023/07/05 12:12:59;;;;;;;5.82;0.80;;;22.90;63.60;;;;;;6063054;23;20436;-76
2023/07/05 12:15:25;;;;;;;8.35;1.40;;;23.20;63.70;;;;;;6057128;23;20105;-77
2023/07/05 12:17:50;;;;;;;5.22;1.10;;;23.40;63.20;;;;;;6059232;23;20041;-77
2023/07/05 12:20:22;;;;;;;4.85;1.23;;;23.00;62.70;;;;;;6059051;23;20010;-76
2023/07/05 12:22:47;;;;;;;1.70;0.68;;;22.90;61.80;;;;;;6083664;23;20021;-77
2023/07/05 12:25:13;;;;;;;7.13;1.30;;;22.80;62.20;;;;;;6058438;23;20080;-77
2023/07/05 12:27:42;;;;;;;6.35;0.90;;;22.80;62.00;;;;;;6084230;23;20626;-77
2023/07/05 12:30:16;;;;;;;8.27;0.80;;;23.20;62.00;;;;;;6059387;23;20379;-76
2023/07/05 12:32:53;;;;;;;1.65;0.68;;;23.60;60.10;;;;;;6061429;23;20021;-76
2023/07/05 12:35:22;;;;;;;3.92;1.00;;;23.80;59.60;;;;;;6036623;23;20017;-77
2023/07/05 12:37:48;;;;;;;4.55;0.85;;;24.10;58.10;;;;;;6081997;23;20006;-77
2023/07/05 12:40:17;;;;;;;3.08;0.98;;;24.10;58.40;;;;;;6036760;23;20401;-75
2023/07/05 12:42:50;;;;;;;3.30;1.05;;;24.40;58.30;;;;;;6082441;23;20024;-77
2023/07/05 12:45:24;;;;;;;2.05;1.00;;;24.40;58.80;;;;;;6082976;23;20017;-75
2023/07/05 12:47:49;;;;;;;5.03;1.35;;;24.30;58.40;;;;;;6058319;23;20010;-76
2023/07/05 12:50:20;;;;;;;1.80;1.00;;;24.20;58.30;;;;;;6084726;23;20098;-76
2023/07/05 12:52:58;;;;;;;3.50;0.90;;;24.10;58.30;;;;;;6036156;23;20100;-77
2023/07/05 12:55:25;;;;;;;4.15;1.15;;;24.10;59.60;;;;;;6056827;23;20148;-76
2023/07/05 12:57:52;;;;;;;9.30;1.08;;;24.40;59.70;;;;;;6033353;23;20016;-76